createdAt,value
2023-01-04T00:01:36.449Z,3.38
2023-01-04T00:04:23.701Z,3.30
2023-01-04T00:07:03.161Z,2.30
2023-01-04T00:09:57.693Z,2.92
2023-01-04T00:12:34.746Z,3.83
2023-01-04T00:15:12.536Z,3.85
2023-01-04T00:17:45.098Z,5.75
2023-01-04T00:20:31.373Z,3.03
2023-01-04T00:22:59.052Z,5.00
2023-01-04T00:25:26.820Z,2.75
2023-01-04T00:28:06.871Z,3.65
2023-01-04T00:30:36.894Z,4.57
2023-01-04T00:33:09.767Z,3.85
2023-01-04T00:35:45.694Z,4.68
2023-01-04T00:38:13.607Z,4.13
2023-01-04T00:40:50.007Z,4.03
2023-01-04T00:44:14.801Z,2.17
2023-01-04T00:47:32.804Z,3.80
2023-01-04T00:54:02.689Z,5.35
2023-01-04T00:58:51.219Z,3.95
2023-01-04T01:01:50.383Z,4.45
2023-01-04T01:05:18.021Z,3.88
2023-01-04T01:08:00.928Z,5.65
2023-01-04T01:10:37.498Z,3.47
2023-01-04T01:13:27.967Z,2.83
2023-01-04T01:16:07.670Z,2.70
2023-01-04T01:21:33.036Z,6.03
2023-01-04T01:24:05.046Z,4.63
2023-01-04T01:26:32.470Z,3.60
2023-01-04T01:29:03.283Z,2.35
2023-01-04T01:34:16.522Z,3.83
2023-01-04T01:36:43.959Z,5.95
2023-01-04T01:39:11.300Z,3.42
2023-01-04T01:41:38.618Z,3.90
2023-01-04T01:44:32.952Z,3.20
2023-01-04T01:47:03.450Z,2.38
2023-01-04T01:49:30.668Z,3.47
2023-01-04T01:52:11.679Z,3.35
2023-01-04T01:54:52.333Z,3.33
2023-01-04T01:57:47.097Z,3.20
2023-01-04T02:00:16.783Z,4.15
2023-01-04T02:03:27.959Z,2.45
2023-01-04T02:06:01.094Z,2.30
2023-01-04T02:08:31.064Z,2.05
2023-01-04T02:10:58.772Z,3.03
2023-01-04T02:13:58.425Z,1.92
2023-01-04T02:16:38.826Z,2.67
2023-01-04T02:19:48.744Z,4.15
2023-01-04T02:22:41.751Z,2.72
2023-01-04T02:25:27.991Z,2.25
2023-01-04T02:28:36.577Z,3.45
2023-01-04T02:31:25.742Z,2.92
2023-01-04T02:34:08.059Z,1.98
2023-01-04T02:36:51.424Z,3.33
2023-01-04T02:40:06.235Z,1.95
2023-01-04T02:43:22.236Z,2.35
2023-01-04T02:46:38.507Z,3.00
2023-01-04T02:52:13.717Z,1.33
2023-01-04T02:54:58.771Z,4.28
2023-01-04T02:58:50.763Z,1.60
2023-01-04T03:01:53.329Z,2.33
2023-01-04T03:05:02.862Z,2.70
2023-01-04T03:08:08.217Z,2.22
2023-01-04T03:11:33.751Z,2.03
2023-01-04T03:14:32.166Z,1.98
2023-01-04T03:17:17.487Z,1.35
2023-01-04T03:19:53.802Z,3.42
2023-01-04T03:23:02.015Z,1.77
2023-01-04T03:25:53.667Z,1.08
2023-01-04T03:28:44.743Z,2.70
2023-01-04T03:31:52.621Z,1.55
2023-01-04T03:34:38.776Z,2.08
2023-01-04T03:37:33.160Z,1.70
2023-01-04T03:40:50.820Z,1.85
2023-01-04T03:43:43.360Z,2.00
2023-01-04T03:46:48.839Z,3.78
2023-01-04T03:49:50.099Z,2.45
2023-01-04T03:52:32.327Z,1.40
2023-01-04T03:55:05.793Z,1.45
2023-01-04T03:57:42.112Z,3.20
2023-01-04T04:00:21.468Z,1.30
2023-01-04T04:03:05.501Z,1.90
2023-01-04T04:05:56.751Z,2.28
2023-01-04T04:08:33.836Z,2.75
2023-01-04T04:11:37.539Z,3.15
2023-01-04T04:14:17.850Z,2.30
2023-01-04T04:17:07.495Z,1.70
2023-01-04T04:19:39.952Z,2.15
2023-01-04T04:22:14.874Z,2.40
2023-01-04T04:24:42.026Z,2.08
2023-01-04T04:27:12.043Z,1.70
2023-01-04T04:29:41.947Z,1.65
2023-01-04T04:32:27.569Z,2.30
2023-01-04T04:34:57.496Z,2.47
2023-01-04T04:37:27.171Z,3.13
2023-01-04T04:39:58.714Z,3.22
2023-01-04T04:42:28.442Z,3.03
2023-01-04T04:44:57.991Z,3.97
2023-01-04T04:47:26.565Z,2.17
2023-01-04T04:50:09.917Z,2.80
2023-01-04T04:52:42.644Z,2.22
2023-01-04T04:55:13.653Z,4.18
2023-01-04T04:57:43.432Z,2.63
2023-01-04T05:00:11.337Z,3.28
2023-01-04T05:02:43.046Z,3.60
2023-01-04T05:05:13.233Z,1.67
2023-01-04T05:07:53.424Z,2.78
2023-01-04T05:10:29.244Z,4.30
2023-01-04T05:13:03.948Z,2.70
2023-01-04T05:15:42.255Z,3.28
2023-01-04T05:18:14.122Z,3.25
2023-01-04T05:20:53.582Z,1.80
2023-01-04T05:23:34.096Z,2.40
2023-01-04T05:26:08.854Z,2.95
2023-01-04T05:28:36.006Z,3.45
2023-01-04T05:31:03.100Z,2.20
2023-01-04T05:33:48.124Z,2.63
2023-01-04T05:36:16.690Z,4.20
2023-01-04T05:38:54.311Z,2.60
2023-01-04T05:42:00.080Z,2.75
2023-01-04T06:14:02.944Z,4.57
2023-01-04T06:16:42.046Z,2.58
2023-01-04T06:19:18.500Z,2.92
2023-01-04T06:22:13.337Z,3.67
2023-01-04T06:25:08.369Z,2.63
2023-01-04T06:31:07.887Z,3.17
2023-01-04T06:33:37.971Z,2.30
2023-01-04T06:37:47.432Z,4.07
2023-01-04T06:40:56.971Z,2.38
2023-01-04T06:43:43.058Z,2.47
2023-01-04T06:46:23.220Z,2.90
2023-01-04T06:49:02.343Z,3.75
2023-01-04T06:54:46.728Z,3.15
2023-01-04T06:57:33.769Z,4.05
2023-01-04T07:00:12.743Z,4.40
2023-01-04T07:03:14.435Z,3.67
2023-01-04T07:05:30.090Z,3.75
2023-01-04T07:08:27.668Z,2.65
2023-01-04T07:10:58.149Z,4.38
2023-01-04T07:39:46.997Z,2.58
2023-01-04T07:42:22.015Z,3.75
2023-01-04T07:44:57.042Z,2.50
2023-01-04T07:47:27.387Z,4.40
2023-01-04T07:49:58.941Z,3.45
2023-01-04T07:52:39.761Z,3.60
2023-01-04T07:55:12.228Z,4.50
2023-01-04T07:57:42.706Z,4.18
2023-01-04T08:00:38.937Z,3.20
2023-01-04T08:03:12.852Z,5.05
2023-01-04T08:05:42.872Z,3.22
2023-01-04T08:08:21.948Z,4.25
2023-01-04T08:11:43.440Z,2.85
2023-01-04T08:14:18.339Z,4.60
2023-01-04T08:17:33.547Z,5.13
2023-01-04T08:20:12.669Z,4.60
2023-01-04T08:22:48.835Z,4.38
2023-01-04T08:25:40.561Z,4.97
2023-01-04T08:29:18.744Z,5.90
2023-01-04T08:31:57.284Z,9.52
2023-01-04T08:34:33.822Z,5.53
2023-01-04T08:37:01.610Z,7.90
2023-01-04T08:39:50.037Z,6.15
2023-01-04T08:42:30.693Z,7.75
2023-01-04T08:45:02.465Z,3.83
2023-01-04T08:54:24.627Z,5.55
2023-01-04T08:57:16.095Z,5.18
2023-01-04T08:59:59.216Z,4.77
2023-01-04T09:02:44.365Z,3.75
2023-01-04T09:08:42.939Z,4.85
2023-01-04T09:14:46.166Z,4.82
2023-01-04T09:17:28.704Z,4.85
2023-01-04T09:27:28.880Z,4.88
2023-01-04T09:34:18.425Z,5.63
2023-01-04T09:44:19.023Z,4.75
2023-01-04T09:47:04.241Z,6.75
2023-01-04T09:50:32.307Z,5.13
2023-01-04T09:57:18.362Z,4.80
2023-01-04T10:00:43.548Z,5.03
2023-01-04T10:03:35.150Z,6.80
2023-01-04T10:06:25.411Z,4.72
2023-01-04T10:09:13.217Z,7.05
2023-01-04T10:12:08.487Z,5.05
2023-01-04T10:14:54.129Z,5.13
2023-01-04T10:17:55.247Z,6.28
2023-01-04T10:23:54.220Z,4.00
2023-01-04T10:27:17.012Z,4.43
2023-01-04T10:30:07.260Z,4.15
2023-01-04T10:33:13.823Z,4.80
2023-01-04T10:35:51.561Z,3.13
2023-01-04T10:38:32.519Z,4.10
2023-01-04T10:41:14.840Z,3.97
2023-01-04T10:44:10.715Z,3.60
2023-01-04T10:47:11.046Z,3.35
2023-01-04T10:50:26.094Z,4.25
2023-01-04T10:56:26.476Z,4.38
2023-01-04T10:59:13.392Z,3.33
2023-01-04T11:03:08.211Z,4.60
2023-01-04T11:06:08.395Z,4.85
2023-01-04T11:09:17.223Z,4.07
2023-01-04T11:12:44.227Z,4.35
2023-01-04T11:15:34.122Z,3.38
2023-01-04T11:18:49.388Z,4.63
2023-01-04T11:27:13.177Z,3.67
2023-01-04T11:30:09.003Z,5.00
2023-01-04T11:33:54.147Z,2.97
2023-01-04T11:36:58.551Z,3.10
2023-01-04T11:42:40.781Z,3.05
2023-01-04T11:45:29.087Z,6.10
2023-01-04T11:47:58.319Z,4.35
2023-01-04T11:51:04.508Z,3.22
2023-01-04T11:53:38.164Z,3.50
2023-01-04T11:56:22.271Z,3.25
2023-01-04T11:59:25.252Z,2.72
2023-01-04T12:02:59.707Z,3.00
2023-01-04T12:05:32.732Z,4.50
2023-01-04T12:08:39.063Z,3.25
2023-01-04T12:11:25.828Z,7.00
2023-01-04T12:14:17.969Z,2.92
2023-01-04T12:16:55.757Z,3.88
2023-01-04T12:19:43.850Z,3.08
2023-01-04T12:22:30.294Z,3.80
2023-01-04T12:25:26.560Z,5.20
2023-01-04T12:27:56.994Z,4.75
2023-01-04T12:31:27.698Z,4.65
2023-01-04T12:34:29.206Z,4.63
2023-01-04T12:37:16.880Z,5.07
2023-01-04T12:41:08.410Z,5.22
2023-01-04T12:44:02.477Z,4.40
2023-01-04T12:55:37.713Z,6.82
2023-01-04T14:28:17.415Z,9.10
2023-01-04T14:31:19.726Z,6.15
2023-01-04T14:34:05.278Z,5.40
2023-01-04T15:52:47.468Z,6.47
2023-01-04T16:09:47.173Z,7.30
2023-01-04T16:15:47.238Z,10.63
2023-01-04T16:20:05.230Z,10.57
2023-01-04T16:21:44.913Z,11.23
2023-01-04T16:25:09.923Z,13.15
2023-01-04T17:48:19.007Z,14.35
2023-01-04T18:11:23.819Z,16.63
2023-01-04T18:50:48.109Z,27.85
2023-01-04T18:58:29.971Z,33.00
2023-01-04T19:11:07.433Z,23.70
2023-01-04T19:18:25.157Z,22.25
2023-01-04T19:21:18.769Z,24.40
2023-01-04T19:25:19.861Z,32.53
2023-01-04T19:27:55.662Z,28.85
2023-01-04T19:33:27.917Z,24.70
2023-01-04T19:35:57.756Z,34.08
2023-01-04T19:38:53.057Z,27.00
2023-01-04T19:41:36.864Z,28.02
2023-01-04T19:44:27.528Z,20.00
2023-01-04T19:47:37.084Z,24.52
2023-01-04T19:59:48.000Z,21.65
2023-01-04T20:03:17.844Z,21.65
2023-01-04T20:05:39.387Z,20.30
2023-01-04T20:12:26.123Z,22.08
2023-01-04T20:15:57.167Z,19.23
2023-01-04T20:19:07.393Z,22.02
2023-01-04T20:26:47.956Z,23.60
2023-01-04T20:29:15.330Z,19.52
2023-01-04T20:31:45.935Z,17.02
2023-01-04T20:34:14.223Z,24.80
2023-01-04T20:36:45.045Z,13.32
2023-01-04T20:39:12.130Z,16.17
2023-01-04T20:42:08.534Z,19.48
2023-01-04T20:44:40.341Z,17.40
2023-01-04T20:47:40.163Z,22.98
2023-01-04T20:58:52.173Z,21.33
2023-01-04T21:02:38.086Z,19.30
2023-01-04T21:35:33.875Z,22.27
2023-01-04T21:40:58.261Z,18.25
2023-01-04T21:43:25.426Z,27.48
2023-01-04T21:45:58.211Z,18.98
2023-01-04T21:48:25.529Z,27.60
2023-01-04T21:51:18.384Z,21.00
2023-01-04T21:53:46.810Z,22.15
2023-01-04T21:56:59.472Z,24.48
2023-01-04T21:59:58.258Z,27.65
2023-01-04T22:02:28.030Z,17.33
2023-01-04T22:04:55.474Z,20.67
2023-01-04T22:07:29.287Z,26.30
2023-01-04T22:10:06.843Z,20.58
2023-01-04T22:12:34.117Z,17.15
2023-01-04T22:15:03.862Z,22.48
2023-01-04T22:17:31.036Z,22.00
2023-01-04T22:20:05.937Z,15.45
2023-01-04T22:22:33.003Z,25.27
2023-01-04T22:25:00.302Z,21.30
2023-01-04T22:27:30.055Z,15.75
2023-01-04T22:29:59.031Z,19.75
2023-01-04T22:32:33.616Z,18.55
2023-01-04T22:35:04.336Z,21.05
2023-01-04T22:37:49.084Z,12.70
2023-01-04T22:40:16.547Z,19.25
2023-01-04T22:42:43.808Z,23.83
2023-01-04T22:45:23.425Z,17.88
2023-01-04T22:47:50.743Z,14.02
2023-01-04T22:50:17.857Z,26.52
2023-01-04T22:52:50.758Z,17.45
2023-01-04T22:55:18.103Z,21.77
2023-01-04T22:57:45.576Z,18.58
2023-01-04T23:00:14.119Z,17.67
2023-01-04T23:02:41.450Z,19.40
2023-01-04T23:05:08.819Z,17.70
2023-01-04T23:07:35.791Z,19.25
2023-01-04T23:10:02.808Z,21.52
2023-01-04T23:12:31.017Z,17.63
2023-01-04T23:14:58.056Z,20.20
2023-01-04T23:17:25.193Z,16.48
2023-01-04T23:19:53.427Z,20.42
2023-01-04T23:22:20.709Z,16.88
2023-01-04T23:24:49.988Z,15.15
2023-01-04T23:27:17.000Z,13.43
2023-01-04T23:29:44.066Z,14.48
2023-01-04T23:32:11.098Z,20.05
2023-01-04T23:34:38.085Z,20.13
2023-01-04T23:37:07.579Z,23.15
2023-01-04T23:39:34.530Z,15.57
2023-01-04T23:42:01.478Z,16.15
2023-01-04T23:44:32.110Z,19.42
2023-01-04T23:47:06.495Z,19.63
2023-01-04T23:49:36.532Z,19.40
2023-01-04T23:52:05.132Z,23.85
2023-01-04T23:54:32.231Z,21.30
2023-01-04T23:57:00.438Z,21.70
2023-01-04T23:59:27.438Z,25.88
